createdAt,value
2018-07-16T00:00:18.038Z,0.00
2018-07-16T00:01:18.026Z,0.00
2018-07-16T00:02:18.011Z,0.00
2018-07-16T00:03:17.996Z,0.00
2018-07-16T00:04:17.981Z,0.00
2018-07-16T00:05:17.971Z,0.00
2018-07-16T00:06:17.953Z,0.00
2018-07-16T00:07:17.939Z,0.00
2018-07-16T00:08:17.925Z,0.00
2018-07-16T00:09:17.919Z,0.00
2018-07-16T00:10:17.899Z,0.00
2018-07-16T00:11:17.884Z,0.00
2018-07-16T00:12:17.870Z,0.00
2018-07-16T00:13:17.858Z,0.00
2018-07-16T00:14:17.842Z,0.00
2018-07-16T00:15:17.827Z,0.00
2018-07-16T00:16:17.814Z,0.00
2018-07-16T00:17:17.827Z,0.00
2018-07-16T00:18:17.797Z,0.00
2018-07-16T00:19:17.770Z,0.00
2018-07-16T00:20:17.757Z,0.00
2018-07-16T00:21:17.741Z,0.00
2018-07-16T00:22:17.729Z,0.00
2018-07-16T00:23:17.715Z,0.00
2018-07-16T00:24:17.698Z,0.00
2018-07-16T00:25:17.684Z,0.00
2018-07-16T00:26:17.670Z,0.00
2018-07-16T00:27:17.657Z,0.00
2018-07-16T00:28:17.641Z,0.00
2018-07-16T00:29:17.626Z,0.00
2018-07-16T00:30:17.613Z,0.00
2018-07-16T00:31:17.601Z,0.00
2018-07-16T00:32:17.587Z,0.00
2018-07-16T00:33:17.573Z,0.00
2018-07-16T00:34:17.556Z,0.00
2018-07-16T00:35:17.543Z,0.00
2018-07-16T00:36:17.527Z,0.00
2018-07-16T00:37:17.514Z,0.00
2018-07-16T00:38:17.505Z,0.00
2018-07-16T00:39:17.484Z,0.00
2018-07-16T00:40:17.469Z,0.00
2018-07-16T00:41:17.459Z,0.00
2018-07-16T00:42:17.441Z,0.00
2018-07-16T00:43:17.426Z,0.00
2018-07-16T00:44:17.471Z,0.00
2018-07-16T00:45:17.396Z,0.00
2018-07-16T00:46:17.383Z,0.00
2018-07-16T00:47:17.369Z,0.00
2018-07-16T00:48:17.353Z,0.00
2018-07-16T00:49:17.339Z,0.00
2018-07-16T00:50:17.324Z,0.00
2018-07-16T00:51:17.311Z,0.00
2018-07-16T00:52:17.294Z,0.00
2018-07-16T00:53:17.287Z,0.00
2018-07-16T00:54:17.267Z,0.00
2018-07-16T00:55:17.253Z,0.00
2018-07-16T00:56:17.244Z,0.00
2018-07-16T00:57:17.228Z,0.00
2018-07-16T00:58:17.215Z,0.00
2018-07-16T00:59:17.201Z,0.00
2018-07-16T01:00:17.181Z,0.00
2018-07-16T01:01:17.163Z,0.00
2018-07-16T01:02:17.150Z,0.00
2018-07-16T01:03:17.134Z,0.00
2018-07-16T01:04:17.119Z,0.00
2018-07-16T01:05:17.105Z,0.00
2018-07-16T01:06:17.094Z,0.00
2018-07-16T01:07:17.082Z,0.00
2018-07-16T01:08:17.063Z,0.00
2018-07-16T01:09:17.048Z,0.00
2018-07-16T01:10:17.034Z,0.00
2018-07-16T01:11:17.018Z,0.00
2018-07-16T01:12:17.001Z,0.00
2018-07-16T01:13:16.987Z,0.00
2018-07-16T01:14:16.973Z,0.00
2018-07-16T01:15:16.958Z,0.00
2018-07-16T01:16:16.997Z,0.00
2018-07-16T01:17:16.930Z,0.00
2018-07-16T01:18:16.918Z,0.00
2018-07-16T01:19:16.902Z,0.00
2018-07-16T01:20:16.884Z,0.00
2018-07-16T01:21:16.870Z,0.00
2018-07-16T01:22:16.860Z,0.00
2018-07-16T01:23:16.841Z,0.00
2018-07-16T01:24:16.825Z,0.00
2018-07-16T01:25:16.813Z,0.00
2018-07-16T01:26:16.796Z,0.00
2018-07-16T01:27:16.780Z,0.00
2018-07-16T01:28:16.768Z,0.00
2018-07-16T01:29:16.754Z,0.00
2018-07-16T01:30:16.740Z,0.00
2018-07-16T01:31:16.730Z,0.00
2018-07-16T01:32:16.713Z,0.00
2018-07-16T01:33:16.692Z,0.00
2018-07-16T01:34:16.678Z,0.00
2018-07-16T01:35:16.666Z,0.00
2018-07-16T01:36:16.697Z,0.00
2018-07-16T01:37:16.643Z,0.00
2018-07-16T01:38:16.620Z,0.00
2018-07-16T01:39:16.604Z,0.00
2018-07-16T01:40:16.591Z,0.00
2018-07-16T01:41:16.579Z,0.00
2018-07-16T01:42:16.561Z,0.00
2018-07-16T01:43:16.547Z,0.00
2018-07-16T01:44:16.532Z,0.00
2018-07-16T01:45:16.516Z,0.00
2018-07-16T01:46:16.500Z,0.00
2018-07-16T01:47:16.486Z,0.00
2018-07-16T01:48:16.470Z,0.00
2018-07-16T01:49:16.457Z,0.00
2018-07-16T01:50:16.441Z,0.00
2018-07-16T01:51:16.425Z,0.00
2018-07-16T01:52:16.412Z,0.00
2018-07-16T01:53:16.395Z,0.00
2018-07-16T01:54:16.381Z,0.00
2018-07-16T01:55:16.368Z,0.00
2018-07-16T01:56:16.352Z,0.00
2018-07-16T01:57:16.339Z,0.00
2018-07-16T01:58:16.321Z,0.00
2018-07-16T01:59:16.307Z,0.00
2018-07-16T02:00:16.291Z,0.00
2018-07-16T02:01:16.275Z,0.00
2018-07-16T02:02:16.264Z,0.00
2018-07-16T02:03:16.245Z,0.00
2018-07-16T02:04:16.228Z,0.00
2018-07-16T02:05:16.218Z,0.00
2018-07-16T02:06:16.201Z,0.00
2018-07-16T02:07:16.188Z,0.00
2018-07-16T02:08:16.169Z,0.00
2018-07-16T02:09:16.154Z,0.00
2018-07-16T02:10:16.143Z,0.00
2018-07-16T02:11:16.124Z,0.00
2018-07-16T02:12:16.109Z,0.00
2018-07-16T02:13:16.092Z,0.00
2018-07-16T02:14:16.080Z,0.00
2018-07-16T02:15:16.168Z,0.00
2018-07-16T02:16:16.048Z,0.00
2018-07-16T02:17:16.035Z,0.00
2018-07-16T02:18:16.027Z,0.00
2018-07-16T02:19:16.004Z,0.00
2018-07-16T02:20:15.988Z,0.00
2018-07-16T02:21:15.976Z,0.00
2018-07-16T02:22:15.957Z,0.00
2018-07-16T02:23:15.943Z,0.00
2018-07-16T02:24:15.927Z,0.00
2018-07-16T02:25:15.913Z,0.00
2018-07-16T02:26:15.898Z,0.00
2018-07-16T02:27:15.887Z,0.00
2018-07-16T02:28:15.870Z,0.00
2018-07-16T02:29:15.851Z,0.00
2018-07-16T02:30:15.836Z,0.00
2018-07-16T02:31:15.821Z,0.00
2018-07-16T02:32:15.805Z,0.00
2018-07-16T02:33:15.791Z,0.00
2018-07-16T02:34:15.775Z,0.00
2018-07-16T02:35:15.760Z,0.00
2018-07-16T02:36:15.744Z,0.00
2018-07-16T02:37:15.730Z,0.00
2018-07-16T02:38:15.719Z,0.00
2018-07-16T02:39:15.699Z,0.00
2018-07-16T02:40:15.684Z,0.00
2018-07-16T02:41:15.667Z,0.00
2018-07-16T02:42:15.657Z,0.00
2018-07-16T02:43:15.638Z,0.00
2018-07-16T02:44:15.622Z,0.00
2018-07-16T02:45:15.607Z,0.00
2018-07-16T02:46:15.591Z,0.00
2018-07-16T02:47:15.580Z,0.00
2018-07-16T02:48:15.561Z,0.00
2018-07-16T02:49:15.549Z,0.00
2018-07-16T02:50:15.531Z,0.00
2018-07-16T02:51:15.514Z,0.00
2018-07-16T02:52:15.503Z,0.00
2018-07-16T02:53:15.518Z,0.00
2018-07-16T02:54:15.477Z,0.00
2018-07-16T02:55:15.454Z,0.00
2018-07-16T02:56:15.500Z,0.00
2018-07-16T02:57:15.423Z,0.00
2018-07-16T02:58:15.408Z,0.00
2018-07-16T02:59:15.394Z,0.00
2018-07-16T03:00:15.376Z,0.00
2018-07-16T03:01:15.365Z,0.00
2018-07-16T03:02:15.345Z,0.00
2018-07-16T03:03:15.330Z,5.63
2018-07-16T03:04:15.314Z,5.63
2018-07-16T03:05:15.306Z,5.63
2018-07-16T03:06:15.282Z,5.63
2018-07-16T03:07:15.268Z,5.63
2018-07-16T03:08:15.255Z,5.63
2018-07-16T03:09:15.237Z,5.63
2018-07-16T03:10:15.222Z,5.63
2018-07-16T03:11:15.207Z,5.63
2018-07-16T03:12:15.211Z,5.63
2018-07-16T03:13:15.177Z,5.63
2018-07-16T03:14:15.159Z,5.63
2018-07-16T03:15:15.148Z,11.25
2018-07-16T03:16:15.133Z,11.25
2018-07-16T03:17:15.114Z,11.25
2018-07-16T03:18:15.100Z,11.25
2018-07-16T03:19:15.082Z,11.25
2018-07-16T03:20:15.064Z,11.25
2018-07-16T03:21:15.050Z,11.25
2018-07-16T03:22:15.037Z,11.25
2018-07-16T03:23:15.020Z,11.25
2018-07-16T03:24:15.003Z,11.25
2018-07-16T03:25:14.991Z,11.25
2018-07-16T03:26:14.974Z,11.25
2018-07-16T03:27:14.957Z,16.88
2018-07-16T03:28:14.940Z,16.88
2018-07-16T03:29:14.923Z,16.88
2018-07-16T03:30:14.917Z,16.88
2018-07-16T03:31:14.894Z,16.88
2018-07-16T03:32:14.877Z,16.88
2018-07-16T03:33:14.863Z,16.88
2018-07-16T03:34:14.846Z,16.88
2018-07-16T03:35:14.888Z,16.88
2018-07-16T03:36:14.814Z,22.50
2018-07-16T03:37:14.803Z,22.50
2018-07-16T03:38:14.884Z,22.50
2018-07-16T03:39:14.770Z,22.50
2018-07-16T03:40:14.755Z,22.50
2018-07-16T03:41:14.739Z,22.50
2018-07-16T03:42:14.724Z,28.13
2018-07-16T03:43:14.714Z,28.13
2018-07-16T03:44:14.692Z,28.13
2018-07-16T03:45:14.675Z,28.13
2018-07-16T03:46:14.661Z,28.13
2018-07-16T03:47:14.644Z,28.13
2018-07-16T03:48:14.628Z,28.13
2018-07-16T03:49:14.611Z,28.13
2018-07-16T03:50:14.597Z,33.75
2018-07-16T03:51:14.583Z,33.75
2018-07-16T03:52:14.568Z,33.75
2018-07-16T03:53:14.550Z,33.75
2018-07-16T03:54:14.533Z,33.75
2018-07-16T03:55:14.517Z,33.75
2018-07-16T03:56:14.502Z,33.75
2018-07-16T03:57:14.488Z,33.75
2018-07-16T03:58:14.469Z,33.75
2018-07-16T03:59:14.455Z,39.38
2018-07-16T04:00:14.444Z,39.38
2018-07-16T04:01:14.423Z,39.38
2018-07-16T04:02:14.408Z,39.38
2018-07-16T04:04:01.336Z,39.38
2018-07-16T04:05:01.317Z,39.38
2018-07-16T04:06:01.307Z,39.38
2018-07-16T04:07:01.288Z,39.38
2018-07-16T04:08:01.274Z,45.00
2018-07-16T04:09:01.261Z,45.00
2018-07-16T04:10:01.245Z,45.00
2018-07-16T04:11:01.224Z,45.00
2018-07-16T04:12:01.208Z,45.00
2018-07-16T04:13:01.196Z,45.00
2018-07-16T04:14:01.178Z,45.00
2018-07-16T04:15:01.165Z,45.00
2018-07-16T04:16:01.146Z,45.00
2018-07-16T04:17:01.131Z,45.00
2018-07-16T04:18:01.116Z,50.63
2018-07-16T04:19:01.105Z,50.63
2018-07-16T04:20:01.082Z,50.63
2018-07-16T04:21:01.067Z,50.63
2018-07-16T04:22:01.062Z,50.63
2018-07-16T04:23:01.034Z,50.63
2018-07-16T04:24:01.020Z,50.63
2018-07-16T04:25:01.005Z,50.63
2018-07-16T04:26:00.988Z,50.63
2018-07-16T04:27:00.973Z,56.25
2018-07-16T04:28:00.957Z,56.25
2018-07-16T04:29:00.942Z,56.25
2018-07-16T04:30:00.924Z,56.25
2018-07-16T04:31:00.961Z,56.25
2018-07-16T04:32:00.893Z,56.25
2018-07-16T04:33:00.878Z,56.25
2018-07-16T04:34:00.861Z,56.25
2018-07-16T04:35:00.845Z,56.25
2018-07-16T04:36:00.844Z,56.25
2018-07-16T04:37:00.819Z,61.88
2018-07-16T04:38:00.799Z,61.88
2018-07-16T04:39:00.785Z,61.88
2018-07-16T04:40:00.885Z,61.88
2018-07-16T04:41:00.753Z,61.88
2018-07-16T04:42:00.736Z,61.88
2018-07-16T04:43:00.721Z,61.88
2018-07-16T04:44:00.704Z,61.88
2018-07-16T04:45:00.688Z,61.88
2018-07-16T04:46:00.677Z,61.88
2018-07-16T04:47:00.659Z,67.50
2018-07-16T04:48:00.642Z,67.50
2018-07-16T04:49:00.630Z,67.50
2018-07-16T04:50:00.613Z,67.50
2018-07-16T04:51:00.600Z,67.50
2018-07-16T04:52:00.580Z,67.50
2018-07-16T04:53:00.564Z,67.50
2018-07-16T04:54:00.552Z,67.50
2018-07-16T04:55:00.535Z,67.50
2018-07-16T04:56:00.518Z,73.13
2018-07-16T04:57:00.501Z,73.13
2018-07-16T04:58:00.489Z,73.13
2018-07-16T04:59:00.471Z,73.13
2018-07-16T05:00:00.459Z,73.13
2018-07-16T05:01:00.442Z,73.13
2018-07-16T05:02:00.426Z,73.13
2018-07-16T05:03:00.410Z,73.13
2018-07-16T05:04:00.394Z,73.13
2018-07-16T05:05:00.378Z,78.75
2018-07-16T05:06:00.370Z,78.75
2018-07-16T05:07:00.353Z,78.75
2018-07-16T05:08:00.332Z,78.75
2018-07-16T05:09:00.318Z,78.75
2018-07-16T05:10:00.303Z,78.75
2018-07-16T05:11:00.288Z,78.75
2018-07-16T05:12:00.270Z,78.75
2018-07-16T05:13:00.258Z,78.75
2018-07-16T05:14:00.243Z,78.75
2018-07-16T05:15:00.228Z,78.75
2018-07-16T05:16:00.212Z,84.38
2018-07-16T05:17:00.195Z,84.38
2018-07-16T05:18:00.199Z,84.38
2018-07-16T05:19:00.167Z,84.38
2018-07-16T05:20:00.151Z,84.38
2018-07-16T05:21:00.137Z,84.38
2018-07-16T05:22:00.121Z,84.38
2018-07-16T05:23:00.119Z,84.38
2018-07-16T05:24:00.141Z,90.00
2018-07-16T05:25:00.076Z,90.00
2018-07-16T05:26:00.117Z,90.00
2018-07-16T05:27:00.049Z,90.00
2018-07-16T05:28:00.034Z,90.00
2018-07-16T05:29:00.028Z,90.00
2018-07-16T05:30:00.000Z,90.00
2018-07-16T05:30:59.987Z,90.00
2018-07-16T05:32:00.025Z,95.63
2018-07-16T05:32:59.959Z,95.63
2018-07-16T05:33:59.942Z,95.63
2018-07-16T05:34:59.926Z,95.63
2018-07-16T05:35:59.912Z,95.63
2018-07-16T05:36:59.901Z,95.63
2018-07-16T05:37:59.885Z,95.63
2018-07-16T05:38:59.869Z,95.63
2018-07-16T05:39:59.852Z,95.63
2018-07-16T05:40:59.840Z,101.25
2018-07-16T05:41:59.824Z,101.25
2018-07-16T05:42:59.811Z,101.25
2018-07-16T05:43:59.796Z,101.25
2018-07-16T05:44:59.788Z,101.25
2018-07-16T05:45:59.766Z,101.25
2018-07-16T05:46:59.751Z,101.25
2018-07-16T05:47:59.742Z,101.25
2018-07-16T05:48:59.729Z,106.88
2018-07-16T05:49:59.709Z,106.88
2018-07-16T05:50:59.702Z,106.88
2018-07-16T05:51:59.677Z,106.88
2018-07-16T05:52:59.667Z,106.88
2018-07-16T05:53:59.648Z,106.88
2018-07-16T05:54:59.639Z,106.88
2018-07-16T05:55:59.618Z,112.50
2018-07-16T05:56:59.606Z,112.50
2018-07-16T05:57:59.591Z,112.50
2018-07-16T05:58:59.578Z,112.50
2018-07-16T05:59:59.565Z,112.50
2018-07-16T06:00:59.552Z,112.50
2018-07-16T06:01:59.533Z,112.50
2018-07-16T06:02:59.521Z,112.50
2018-07-16T06:03:59.505Z,118.13
2018-07-16T06:04:59.490Z,118.13
2018-07-16T06:05:59.476Z,118.13
2018-07-16T06:06:59.462Z,118.13
2018-07-16T06:07:59.446Z,118.13
2018-07-16T06:08:59.433Z,118.13
2018-07-16T06:09:59.417Z,123.75
2018-07-16T06:10:59.404Z,123.75
2018-07-16T06:11:59.389Z,123.75
2018-07-16T06:12:59.378Z,123.75
2018-07-16T06:13:59.360Z,123.75
2018-07-16T06:14:59.355Z,123.75
2018-07-16T06:15:59.344Z,129.38
2018-07-16T06:16:59.319Z,129.38
2018-07-16T06:17:59.308Z,129.38
2018-07-16T06:18:59.293Z,129.38
2018-07-16T06:19:59.276Z,129.38
2018-07-16T06:20:59.264Z,129.38
2018-07-16T06:21:59.252Z,129.38
2018-07-16T06:22:59.245Z,135.00
2018-07-16T06:23:59.258Z,135.00
2018-07-16T06:24:59.207Z,135.00
2018-07-16T06:25:59.196Z,135.00
2018-07-16T06:26:59.190Z,135.00
2018-07-16T06:27:59.166Z,135.00
2018-07-16T06:28:59.151Z,140.63
2018-07-16T06:29:59.138Z,140.63
2018-07-16T06:30:59.127Z,146.25
2018-07-16T06:31:59.115Z,146.25
2018-07-16T06:32:59.114Z,146.25
2018-07-16T06:33:59.087Z,146.25
2018-07-16T06:34:59.075Z,146.25
2018-07-16T06:35:59.055Z,146.25
2018-07-16T06:36:59.043Z,146.25
2018-07-16T06:37:59.028Z,146.25
2018-07-16T06:38:59.018Z,146.25
2018-07-16T06:39:59.170Z,146.25
2018-07-16T06:40:59.219Z,146.25
2018-07-16T06:41:58.976Z,146.25
2018-07-16T06:42:58.961Z,146.25
2018-07-16T06:43:58.946Z,151.88
2018-07-16T06:44:58.938Z,151.88
2018-07-16T06:45:58.922Z,151.88
2018-07-16T06:46:58.907Z,151.88
2018-07-16T06:47:58.896Z,151.88
2018-07-16T06:48:58.885Z,157.50
2018-07-16T06:49:58.871Z,157.50
2018-07-16T06:50:58.855Z,157.50
2018-07-16T06:51:58.841Z,163.13
2018-07-16T06:52:58.832Z,157.50
2018-07-16T06:53:58.819Z,157.50
2018-07-16T06:54:58.807Z,157.50
2018-07-16T06:55:58.789Z,163.13
2018-07-16T06:56:58.776Z,163.13
2018-07-16T06:57:58.762Z,163.13
2018-07-16T06:58:58.753Z,163.13
2018-07-16T06:59:58.744Z,168.75
2018-07-16T07:00:58.725Z,168.75
2018-07-16T07:01:58.716Z,174.38
2018-07-16T07:02:58.699Z,168.75
2018-07-16T07:03:58.686Z,174.38
2018-07-16T07:04:58.672Z,174.38
2018-07-16T07:05:58.661Z,174.38
2018-07-16T07:06:58.651Z,180.00
2018-07-16T07:07:58.633Z,180.00
2018-07-16T07:08:58.623Z,180.00
2018-07-16T07:09:58.672Z,185.63
2018-07-16T07:10:58.597Z,185.63
2018-07-16T07:11:58.584Z,191.25
2018-07-16T07:12:58.574Z,191.25
2018-07-16T07:13:58.560Z,191.25
2018-07-16T07:14:58.546Z,196.88
2018-07-16T07:15:58.535Z,196.88
2018-07-16T07:16:58.523Z,196.88
2018-07-16T07:17:58.513Z,202.50
2018-07-16T07:18:58.498Z,202.50
2018-07-16T07:19:58.484Z,208.13
2018-07-16T07:20:58.525Z,208.13
2018-07-16T07:21:58.461Z,213.75
2018-07-16T07:22:58.450Z,213.75
2018-07-16T07:23:58.436Z,219.38
2018-07-16T07:24:58.424Z,219.38
2018-07-16T07:25:58.416Z,219.38
2018-07-16T07:26:58.401Z,219.38
2018-07-16T07:27:58.388Z,225.00
2018-07-16T07:28:58.377Z,225.00
2018-07-16T07:29:58.365Z,225.00
2018-07-16T07:30:58.357Z,230.63
2018-07-16T07:31:58.347Z,230.63
2018-07-16T07:32:58.332Z,236.25
2018-07-16T07:33:58.319Z,236.25
2018-07-16T07:34:58.353Z,236.25
2018-07-16T07:35:58.388Z,241.88
2018-07-16T07:36:58.283Z,241.88
2018-07-16T07:37:58.294Z,247.50
2018-07-16T07:38:58.259Z,247.50
2018-07-16T07:39:58.247Z,253.13
2018-07-16T07:40:58.236Z,253.13
2018-07-16T07:41:58.232Z,253.13
2018-07-16T07:42:58.217Z,264.38
2018-07-16T07:43:58.208Z,258.75
2018-07-16T07:44:58.197Z,270.00
2018-07-16T07:45:58.180Z,270.00
2018-07-16T07:46:58.169Z,270.00
2018-07-16T07:47:58.157Z,275.63
2018-07-16T07:48:58.148Z,275.63
2018-07-16T07:49:58.140Z,281.25
2018-07-16T07:50:58.131Z,286.88
2018-07-16T07:51:58.114Z,286.88
2018-07-16T07:52:58.111Z,292.50
2018-07-16T07:53:58.094Z,298.13
2018-07-16T07:54:58.331Z,309.38
2018-07-16T07:55:58.075Z,315.00
2018-07-16T07:56:58.063Z,326.25
2018-07-16T07:57:58.054Z,337.50
2018-07-16T07:58:58.044Z,343.13
2018-07-16T07:59:58.028Z,376.88
2018-07-16T08:00:58.019Z,405.00
2018-07-16T08:01:58.010Z,185.63
2018-07-16T08:02:58.005Z,180.00
2018-07-16T08:03:57.988Z,180.00
2018-07-16T08:04:57.978Z,185.63
2018-07-16T08:05:57.971Z,185.63
2018-07-16T08:06:57.976Z,185.63
2018-07-16T08:07:57.947Z,185.63
2018-07-16T08:08:57.942Z,185.63
2018-07-16T08:09:57.928Z,185.63
2018-07-16T08:10:57.919Z,191.25
2018-07-16T08:11:57.908Z,191.25
2018-07-16T08:12:58.508Z,191.25
2018-07-16T08:13:57.889Z,191.25
2018-07-16T08:14:57.880Z,191.25
2018-07-16T08:15:57.870Z,191.25
2018-07-16T08:16:57.860Z,191.25
2018-07-16T08:17:57.855Z,196.88
2018-07-16T08:18:57.844Z,196.88
2018-07-16T08:19:57.831Z,196.88
2018-07-16T08:20:57.891Z,196.88
2018-07-16T08:21:57.812Z,196.88
2018-07-16T08:22:59.015Z,202.50
2018-07-16T08:23:57.793Z,202.50
2018-07-16T08:24:57.783Z,202.50
2018-07-16T08:25:57.786Z,202.50
2018-07-16T08:26:57.772Z,202.50
2018-07-16T08:27:57.755Z,202.50
2018-07-16T08:28:57.754Z,202.50
2018-07-16T08:29:57.738Z,202.50
2018-07-16T08:30:57.733Z,196.88
2018-07-16T08:31:57.718Z,202.50
2018-07-16T08:32:57.709Z,202.50
2018-07-16T08:33:57.701Z,202.50
2018-07-16T08:34:57.696Z,202.50
2018-07-16T08:35:57.681Z,202.50
2018-07-16T08:36:57.671Z,202.50
2018-07-16T08:37:57.663Z,202.50
2018-07-16T08:38:57.716Z,202.50
2018-07-16T08:39:57.648Z,208.13
2018-07-16T08:40:57.636Z,202.50
2018-07-16T08:41:57.633Z,208.13
2018-07-16T08:42:57.618Z,208.13
2018-07-16T08:43:57.609Z,208.13
2018-07-16T08:44:57.599Z,208.13
2018-07-16T08:45:57.601Z,213.75
2018-07-16T08:46:57.591Z,213.75
2018-07-16T08:47:57.573Z,213.75
2018-07-16T08:48:57.566Z,213.75
2018-07-16T08:49:57.556Z,213.75
2018-07-16T08:50:57.552Z,213.75
2018-07-16T08:51:57.537Z,213.75
2018-07-16T08:52:57.529Z,219.38
2018-07-16T08:53:57.521Z,219.38
2018-07-16T08:54:57.514Z,4876.88
2018-07-16T08:55:57.505Z,4905.00
2018-07-16T08:56:57.496Z,4961.25
2018-07-16T08:57:57.487Z,5017.50
2018-07-16T08:58:57.490Z,5023.13
2018-07-16T08:59:57.474Z,4950.00
2018-07-16T09:00:57.467Z,4916.25
2018-07-16T09:01:57.462Z,4950.00
2018-07-16T09:02:57.450Z,5079.38
2018-07-16T09:03:57.499Z,5073.75
2018-07-16T09:04:57.442Z,5040.00
2018-07-16T09:05:57.436Z,5124.38
2018-07-16T09:06:57.432Z,5146.88
2018-07-16T09:07:57.427Z,5208.75
2018-07-16T09:08:57.423Z,5118.75
2018-07-16T09:09:57.417Z,5101.88
2018-07-16T09:10:57.438Z,5079.38
2018-07-16T09:11:57.408Z,5118.75
2018-07-16T09:12:57.415Z,5141.25
2018-07-16T09:13:57.402Z,5169.38
2018-07-16T09:14:57.400Z,5225.63
2018-07-16T09:15:57.395Z,5265.00
2018-07-16T09:16:57.471Z,5326.88
2018-07-16T09:17:57.389Z,5343.75
2018-07-16T09:18:57.388Z,5338.13
2018-07-16T09:19:57.382Z,5360.63
2018-07-16T09:20:57.381Z,5416.88
2018-07-16T09:21:57.375Z,5445.00
2018-07-16T09:22:57.374Z,5478.75
2018-07-16T09:23:57.375Z,5411.25
2018-07-16T09:24:57.369Z,5428.13
2018-07-16T09:25:57.372Z,5540.63
2018-07-16T09:26:57.366Z,5596.88
2018-07-16T09:27:57.369Z,5703.75
2018-07-16T09:28:57.363Z,5793.75
2018-07-16T09:29:57.363Z,5771.25
2018-07-16T09:30:57.358Z,5754.38
2018-07-16T09:31:57.417Z,5731.88
2018-07-16T09:32:57.359Z,5692.50
2018-07-16T09:33:57.360Z,5580.00
2018-07-16T09:34:57.357Z,5495.63
2018-07-16T09:35:57.357Z,5484.38
2018-07-16T09:36:57.354Z,5506.88
2018-07-16T09:37:57.354Z,5596.88
2018-07-16T09:38:57.381Z,5720.63
2018-07-16T09:39:57.354Z,5754.38
2018-07-16T09:40:57.352Z,5715.00
2018-07-16T09:41:57.350Z,5709.38
2018-07-16T09:42:57.356Z,5805.00
2018-07-16T09:43:57.351Z,5805.00
2018-07-16T09:44:57.357Z,5788.13
2018-07-16T09:45:57.360Z,5771.25
2018-07-16T09:46:57.352Z,5602.50
2018-07-16T09:47:57.352Z,5490.00
2018-07-16T09:48:57.353Z,5315.63
2018-07-16T09:49:57.351Z,5203.13
2018-07-16T09:50:57.351Z,5293.13
2018-07-16T09:51:57.350Z,5416.88
2018-07-16T09:52:57.360Z,5518.13
2018-07-16T09:53:57.350Z,5506.88
2018-07-16T09:54:57.351Z,5394.38
2018-07-16T09:55:57.350Z,5433.75
2018-07-16T09:56:57.351Z,5473.13
2018-07-16T09:57:57.350Z,5450.63
2018-07-16T09:58:57.352Z,5844.38
2018-07-16T09:59:57.353Z,6058.13
2018-07-16T10:00:57.352Z,6058.13
2018-07-16T10:01:57.355Z,6030.00
2018-07-16T10:02:57.360Z,5996.25
2018-07-16T10:03:57.359Z,5827.50
2018-07-16T10:04:57.358Z,5850.00
2018-07-16T10:05:57.409Z,5900.63
2018-07-16T10:06:57.360Z,5985.00
2018-07-16T10:07:57.361Z,5996.25
2018-07-16T10:08:57.360Z,5956.88
2018-07-16T10:09:57.363Z,5985.00
2018-07-16T10:10:57.368Z,5968.13
2018-07-16T10:11:57.367Z,5945.63
2018-07-16T10:12:57.373Z,5940.00
2018-07-16T10:13:57.370Z,6075.00
2018-07-16T10:14:57.370Z,6097.50
2018-07-16T10:15:57.373Z,6148.13
2018-07-16T10:16:57.377Z,6153.75
2018-07-16T10:17:57.382Z,6069.38
2018-07-16T10:18:57.374Z,5923.13
2018-07-16T10:19:57.432Z,5799.38
2018-07-16T10:20:57.378Z,5720.63
2018-07-16T10:21:57.381Z,5799.38
2018-07-16T10:22:57.390Z,5771.25
2018-07-16T10:23:57.386Z,5675.63
2018-07-16T10:24:57.384Z,5484.38
2018-07-16T10:25:57.502Z,5197.50
2018-07-16T10:26:57.390Z,4831.88
2018-07-16T10:27:57.391Z,3892.50
2018-07-16T10:28:57.400Z,2598.75
2018-07-16T10:29:57.394Z,1524.38
2018-07-16T10:30:57.399Z,1293.75
2018-07-16T10:31:57.398Z,1231.88
2018-07-16T10:32:57.405Z,1203.75
2018-07-16T10:33:57.645Z,1186.88
2018-07-16T10:34:57.410Z,1175.63
2018-07-16T10:35:57.407Z,1158.75
2018-07-16T10:36:57.410Z,1147.50
2018-07-16T10:37:57.416Z,1136.25
2018-07-16T10:38:57.417Z,1125.00
2018-07-16T10:39:57.416Z,1119.38
2018-07-16T10:40:57.420Z,1113.75
2018-07-16T10:41:57.426Z,1108.13
2018-07-16T10:42:57.427Z,1108.13
2018-07-16T10:43:57.427Z,1102.50
2018-07-16T10:44:57.429Z,1102.50
2018-07-16T10:45:57.433Z,1102.50
2018-07-16T10:46:57.436Z,1102.50
2018-07-16T10:47:57.440Z,1108.13
2018-07-16T10:48:57.446Z,1102.50
2018-07-16T10:49:57.443Z,1096.88
2018-07-16T10:50:57.456Z,1096.88
2018-07-16T10:51:57.452Z,1102.50
2018-07-16T10:52:57.455Z,1113.75
2018-07-16T10:53:57.458Z,1108.13
2018-07-16T10:54:57.464Z,1113.75
2018-07-16T10:55:57.461Z,1113.75
2018-07-16T10:56:57.466Z,1119.38
2018-07-16T10:57:57.468Z,1113.75
2018-07-16T10:58:57.474Z,1125.00
2018-07-16T10:59:57.474Z,1136.25
2018-07-16T11:00:57.477Z,1136.25
2018-07-16T11:01:57.494Z,1125.00
2018-07-16T11:02:57.487Z,1085.63
2018-07-16T11:03:57.490Z,1108.13
2018-07-16T11:04:57.493Z,1102.50
2018-07-16T11:05:57.496Z,1102.50
2018-07-16T11:06:57.507Z,1108.13
2018-07-16T11:07:57.510Z,1102.50
2018-07-16T11:08:57.515Z,1102.50
2018-07-16T11:09:57.512Z,1096.88
2018-07-16T11:10:57.512Z,1096.88
2018-07-16T11:11:57.520Z,1102.50
2018-07-16T11:12:57.524Z,1102.50
2018-07-16T11:13:57.526Z,1096.88
2018-07-16T11:14:57.559Z,1096.88
2018-07-16T11:15:57.529Z,1102.50
2018-07-16T11:16:57.534Z,1096.88
2018-07-16T11:17:57.538Z,1102.50
2018-07-16T11:18:57.543Z,1108.13
2018-07-16T11:19:57.544Z,1108.13
2018-07-16T11:20:57.696Z,1102.50
2018-07-16T11:21:57.552Z,1096.88
2018-07-16T11:22:57.561Z,1102.50
2018-07-16T11:23:57.567Z,1108.13
2018-07-16T11:24:57.566Z,1102.50
2018-07-16T11:25:57.569Z,1102.50
2018-07-16T11:26:57.574Z,1108.13
2018-07-16T11:27:57.577Z,1113.75
2018-07-16T11:28:57.585Z,1113.75
2018-07-16T11:29:57.587Z,1125.00
2018-07-16T11:30:57.598Z,1130.63
2018-07-16T11:31:57.594Z,1125.00
2018-07-16T11:32:57.598Z,1130.63
2018-07-16T11:33:57.602Z,1130.63
2018-07-16T11:34:57.607Z,1136.25
2018-07-16T11:35:57.740Z,1147.50
2018-07-16T11:36:57.631Z,1153.13
2018-07-16T11:37:57.621Z,1158.75
2018-07-16T11:38:57.626Z,1147.50
2018-07-16T11:39:57.635Z,1175.63
2018-07-16T11:40:57.632Z,1119.38
2018-07-16T11:41:57.644Z,1203.75
2018-07-16T11:42:57.652Z,1265.63
2018-07-16T11:43:57.647Z,1237.50
2018-07-16T11:44:57.653Z,1276.88
2018-07-16T11:45:57.659Z,1119.38
2018-07-16T11:46:57.662Z,1096.88
2018-07-16T11:47:57.673Z,1288.13
2018-07-16T11:48:57.671Z,1271.25
2018-07-16T11:49:57.680Z,1248.75
2018-07-16T11:50:57.683Z,1231.88
2018-07-16T11:51:57.687Z,1220.63
2018-07-16T11:52:57.704Z,1175.63
2018-07-16T11:53:57.696Z,1125.00
2018-07-16T11:54:57.700Z,905.63
2018-07-16T11:55:57.707Z,945.00
2018-07-16T11:56:57.709Z,916.88
2018-07-16T11:57:57.722Z,1018.13
2018-07-16T11:58:57.759Z,1074.38
2018-07-16T11:59:57.721Z,444.38
2018-07-16T12:00:57.728Z,450.00
2018-07-16T12:01:57.766Z,455.63
2018-07-16T12:02:57.737Z,472.50
2018-07-16T12:03:57.738Z,461.25
2018-07-16T12:04:57.745Z,506.25
2018-07-16T12:05:57.745Z,551.25
2018-07-16T12:06:57.748Z,562.50
2018-07-16T12:07:57.752Z,573.75
2018-07-16T12:08:57.754Z,607.50
2018-07-16T12:09:57.756Z,663.75
2018-07-16T12:10:57.758Z,686.25
2018-07-16T12:11:57.760Z,697.50
2018-07-16T12:12:57.764Z,697.50
2018-07-16T12:13:57.774Z,703.13
2018-07-16T12:14:57.769Z,731.25
2018-07-16T12:15:57.770Z,787.50
2018-07-16T12:16:57.773Z,821.25
2018-07-16T12:17:57.776Z,742.50
2018-07-16T12:18:57.779Z,708.75
2018-07-16T12:19:57.780Z,725.63
2018-07-16T12:20:57.782Z,742.50
2018-07-16T12:21:57.786Z,686.25
2018-07-16T12:22:57.786Z,725.63
2018-07-16T12:23:57.788Z,821.25
2018-07-16T12:24:57.791Z,1085.63
2018-07-16T12:25:57.820Z,3138.75
2018-07-16T12:26:57.797Z,5090.63
2018-07-16T12:27:57.798Z,5332.50
2018-07-16T12:28:57.801Z,5439.38
2018-07-16T12:29:57.806Z,5518.13
2018-07-16T12:30:57.803Z,5529.38
2018-07-16T12:31:57.804Z,5467.50
2018-07-16T12:32:57.855Z,5326.88
2018-07-16T12:33:57.808Z,4230.00
2018-07-16T12:34:57.810Z,3504.38
2018-07-16T12:35:57.819Z,1957.50
2018-07-16T12:36:57.812Z,646.88
2018-07-16T12:37:57.816Z,630.00
2018-07-16T12:38:57.815Z,573.75
2018-07-16T12:39:57.820Z,618.75